sensor_id;sensor_type;location;lat;lon;timestamp;P1;durP1;ratioP1;P2;durP2;ratioP2
14849;SDS011;7517;48.400;11.770;2022-11-14T00:00:42;3.30;;;3.10;;
14849;SDS011;7517;48.400;11.770;2022-11-14T00:03:10;3.80;;;3.50;;
14849;SDS011;7517;48.400;11.770;2022-11-14T00:05:40;6.10;;;3.23;;
14849;SDS011;7517;48.400;11.770;2022-11-14T00:08:13;3.73;;;3.43;;
14849;SDS011;7517;48.400;11.770;2022-11-14T00:10:43;3.70;;;3.40;;
14849;SDS011;7517;48.400;11.770;2022-11-14T00:13:12;4.03;;;3.73;;
14849;SDS011;7517;48.400;11.770;2022-11-14T00:15:40;4.00;;;3.27;;
14849;SDS011;7517;48.400;11.770;2022-11-14T00:18:07;3.63;;;3.33;;
14849;SDS011;7517;48.400;11.770;2022-11-14T00:20:35;3.30;;;3.10;;
14849;SDS011;7517;48.400;11.770;2022-11-14T00:23:03;3.73;;;3.40;;
14849;SDS011;7517;48.400;11.770;2022-11-14T00:25:31;3.80;;;3.50;;
14849;SDS011;7517;48.400;11.770;2022-11-14T00:27:58;4.30;;;3.93;;
14849;SDS011;7517;48.400;11.770;2022-11-14T00:30:26;3.77;;;3.53;;
14849;SDS011;7517;48.400;11.770;2022-11-14T00:32:53;3.93;;;3.60;;
14849;SDS011;7517;48.400;11.770;2022-11-14T00:35:21;7.33;;;3.83;;
14849;SDS011;7517;48.400;11.770;2022-11-14T00:37:48;4.10;;;3.80;;
14849;SDS011;7517;48.400;11.770;2022-11-14T00:40:17;4.93;;;3.57;;
14849;SDS011;7517;48.400;11.770;2022-11-14T00:42:44;6.30;;;3.70;;
14849;SDS011;7517;48.400;11.770;2022-11-14T00:45:11;3.73;;;3.43;;
14849;SDS011;7517;48.400;11.770;2022-11-14T00:47:39;6.73;;;3.93;;
14849;SDS011;7517;48.400;11.770;2022-11-14T00:50:06;4.83;;;4.00;;
14849;SDS011;7517;48.400;11.770;2022-11-14T00:52:35;4.10;;;3.70;;
14849;SDS011;7517;48.400;11.770;2022-11-14T00:55:03;4.23;;;3.93;;
14849;SDS011;7517;48.400;11.770;2022-11-14T00:57:33;4.13;;;3.60;;
14849;SDS011;7517;48.400;11.770;2022-11-14T01:00:00;3.53;;;3.33;;
14849;SDS011;7517;48.400;11.770;2022-11-14T01:02:27;4.00;;;3.60;;
14849;SDS011;7517;48.400;11.770;2022-11-14T01:04:54;6.13;;;3.90;;
14849;SDS011;7517;48.400;11.770;2022-11-14T01:07:22;4.17;;;3.87;;
14849;SDS011;7517;48.400;11.770;2022-11-14T01:09:49;5.37;;;3.97;;
14849;SDS011;7517;48.400;11.770;2022-11-14T01:12:16;4.80;;;4.40;;
14849;SDS011;7517;48.400;11.770;2022-11-14T01:14:45;4.00;;;3.70;;
14849;SDS011;7517;48.400;11.770;2022-11-14T01:17:12;3.63;;;3.43;;
14849;SDS011;7517;48.400;11.770;2022-11-14T01:19:39;4.27;;;3.97;;
14849;SDS011;7517;48.400;11.770;2022-11-14T01:22:08;6.27;;;4.27;;
14849;SDS011;7517;48.400;11.770;2022-11-14T01:24:35;5.67;;;4.13;;
14849;SDS011;7517;48.400;11.770;2022-11-14T01:27:03;8.47;;;4.17;;
14849;SDS011;7517;48.400;11.770;2022-11-14T01:29:30;9.13;;;4.60;;
14849;SDS011;7517;48.400;11.770;2022-11-14T01:31:58;8.30;;;4.50;;
14849;SDS011;7517;48.400;11.770;2022-11-14T01:34:26;8.60;;;4.70;;
14849;SDS011;7517;48.400;11.770;2022-11-14T01:36:53;5.80;;;4.60;;
14849;SDS011;7517;48.400;11.770;2022-11-14T01:39:20;10.60;;;5.10;;
14849;SDS011;7517;48.400;11.770;2022-11-14T01:41:48;8.00;;;4.80;;
14849;SDS011;7517;48.400;11.770;2022-11-14T01:44:16;12.33;;;4.60;;
14849;SDS011;7517;48.400;11.770;2022-11-14T01:47:07;4.10;;;3.80;;
14849;SDS011;7517;48.400;11.770;2022-11-14T01:49:37;15.90;;;4.60;;
14849;SDS011;7517;48.400;11.770;2022-11-14T01:52:09;11.23;;;5.23;;
14849;SDS011;7517;48.400;11.770;2022-11-14T01:54:42;9.40;;;4.80;;
14849;SDS011;7517;48.400;11.770;2022-11-14T01:57:15;7.20;;;4.40;;
14849;SDS011;7517;48.400;11.770;2022-11-14T01:59:48;4.63;;;4.23;;
14849;SDS011;7517;48.400;11.770;2022-11-14T02:02:21;6.17;;;4.40;;
14849;SDS011;7517;48.400;11.770;2022-11-14T02:04:52;4.60;;;4.23;;
14849;SDS011;7517;48.400;11.770;2022-11-14T02:07:26;7.10;;;4.90;;
14849;SDS011;7517;48.400;11.770;2022-11-14T02:09:57;8.17;;;4.50;;
14849;SDS011;7517;48.400;11.770;2022-11-14T02:12:30;11.67;;;4.67;;
14849;SDS011;7517;48.400;11.770;2022-11-14T02:14:58;6.20;;;4.80;;
14849;SDS011;7517;48.400;11.770;2022-11-14T02:17:28;4.57;;;4.17;;
14849;SDS011;7517;48.400;11.770;2022-11-14T02:20:04;7.63;;;4.53;;
14849;SDS011;7517;48.400;11.770;2022-11-14T02:22:41;13.77;;;4.53;;
14849;SDS011;7517;48.400;11.770;2022-11-14T02:25:09;5.33;;;4.43;;
14849;SDS011;7517;48.400;11.770;2022-11-14T02:27:41;21.10;;;5.00;;
14849;SDS011;7517;48.400;11.770;2022-11-14T02:30:10;4.77;;;4.37;;
14849;SDS011;7517;48.400;11.770;2022-11-14T02:32:40;13.23;;;4.97;;
14849;SDS011;7517;48.400;11.770;2022-11-14T02:35:09;6.13;;;4.07;;
14849;SDS011;7517;48.400;11.770;2022-11-14T02:37:37;4.47;;;4.07;;
14849;SDS011;7517;48.400;11.770;2022-11-14T02:40:05;6.43;;;4.67;;
14849;SDS011;7517;48.400;11.770;2022-11-14T02:42:34;5.10;;;4.67;;
14849;SDS011;7517;48.400;11.770;2022-11-14T02:45:01;11.63;;;4.67;;
14849;SDS011;7517;48.400;11.770;2022-11-14T02:47:29;5.53;;;4.50;;
14849;SDS011;7517;48.400;11.770;2022-11-14T02:49:56;4.87;;;4.13;;
14849;SDS011;7517;48.400;11.770;2022-11-14T02:52:25;8.40;;;4.30;;
14849;SDS011;7517;48.400;11.770;2022-11-14T02:54:52;16.07;;;5.00;;
14849;SDS011;7517;48.400;11.770;2022-11-14T02:57:19;5.03;;;4.50;;
14849;SDS011;7517;48.400;11.770;2022-11-14T02:59:46;7.30;;;4.60;;
14849;SDS011;7517;48.400;11.770;2022-11-14T03:02:14;4.43;;;4.03;;
14849;SDS011;7517;48.400;11.770;2022-11-14T03:04:41;4.63;;;4.23;;
14849;SDS011;7517;48.400;11.770;2022-11-14T03:07:08;13.63;;;4.63;;
14849;SDS011;7517;48.400;11.770;2022-11-14T03:09:37;7.20;;;4.50;;
14849;SDS011;7517;48.400;11.770;2022-11-14T03:12:04;4.30;;;4.00;;
14849;SDS011;7517;48.400;11.770;2022-11-14T03:14:32;5.73;;;4.10;;
14849;SDS011;7517;48.400;11.770;2022-11-14T03:16:59;4.17;;;3.23;;
14849;SDS011;7517;48.400;11.770;2022-11-14T03:19:26;3.67;;;3.37;;
14849;SDS011;7517;48.400;11.770;2022-11-14T03:21:54;3.93;;;3.63;;
14849;SDS011;7517;48.400;11.770;2022-11-14T03:24:21;3.20;;;3.00;;
14849;SDS011;7517;48.400;11.770;2022-11-14T03:26:50;6.00;;;3.80;;
14849;SDS011;7517;48.400;11.770;2022-11-14T03:29:17;5.57;;;3.80;;
14849;SDS011;7517;48.400;11.770;2022-11-14T03:31:44;4.30;;;4.00;;
14849;SDS011;7517;48.400;11.770;2022-11-14T03:34:11;4.70;;;3.73;;
14849;SDS011;7517;48.400;11.770;2022-11-14T03:36:39;6.73;;;3.30;;
14849;SDS011;7517;48.400;11.770;2022-11-14T03:39:06;7.97;;;3.47;;
14849;SDS011;7517;48.400;11.770;2022-11-14T03:41:33;5.47;;;3.67;;
14849;SDS011;7517;48.400;11.770;2022-11-14T03:44:02;4.47;;;4.07;;
14849;SDS011;7517;48.400;11.770;2022-11-14T03:46:29;20.50;;;4.27;;
14849;SDS011;7517;48.400;11.770;2022-11-14T03:48:57;8.90;;;3.73;;
14849;SDS011;7517;48.400;11.770;2022-11-14T03:51:24;4.37;;;4.00;;
14849;SDS011;7517;48.400;11.770;2022-11-14T03:53:51;8.70;;;3.77;;
14849;SDS011;7517;48.400;11.770;2022-11-14T03:56:18;5.57;;;4.20;;
14849;SDS011;7517;48.400;11.770;2022-11-14T03:58:45;10.17;;;4.23;;
14849;SDS011;7517;48.400;11.770;2022-11-14T04:01:14;8.90;;;4.30;;
14849;SDS011;7517;48.400;11.770;2022-11-14T04:03:41;8.63;;;3.87;;
14849;SDS011;7517;48.400;11.770;2022-11-14T04:06:08;7.03;;;4.37;;
14849;SDS011;7517;48.400;11.770;2022-11-14T04:08:38;9.60;;;4.40;;
14849;SDS011;7517;48.400;11.770;2022-11-14T04:11:06;7.07;;;4.33;;
14849;SDS011;7517;48.400;11.770;2022-11-14T04:13:34;4.53;;;3.63;;
14849;SDS011;7517;48.400;11.770;2022-11-14T04:16:01;5.10;;;3.73;;
14849;SDS011;7517;48.400;11.770;2022-11-14T04:18:30;9.33;;;3.90;;
14849;SDS011;7517;48.400;11.770;2022-11-14T04:20:57;3.67;;;3.37;;
14849;SDS011;7517;48.400;11.770;2022-11-14T04:23:24;4.23;;;3.83;;
14849;SDS011;7517;48.400;11.770;2022-11-14T04:25:51;13.13;;;4.23;;
14849;SDS011;7517;48.400;11.770;2022-11-14T04:28:19;4.80;;;3.27;;
14849;SDS011;7517;48.400;11.770;2022-11-14T04:30:46;3.83;;;3.47;;
14849;SDS011;7517;48.400;11.770;2022-11-14T04:33:13;3.83;;;3.53;;
14849;SDS011;7517;48.400;11.770;2022-11-14T04:35:42;5.30;;;3.30;;
14849;SDS011;7517;48.400;11.770;2022-11-14T04:38:09;4.13;;;3.83;;
14849;SDS011;7517;48.400;11.770;2022-11-14T04:40:36;3.53;;;3.27;;
14849;SDS011;7517;48.400;11.770;2022-11-14T04:43:03;3.53;;;3.33;;
14849;SDS011;7517;48.400;11.770;2022-11-14T04:45:31;4.07;;;3.77;;
14849;SDS011;7517;48.400;11.770;2022-11-14T04:47:58;6.27;;;3.90;;
14849;SDS011;7517;48.400;11.770;2022-11-14T04:50:25;4.13;;;3.73;;
14849;SDS011;7517;48.400;11.770;2022-11-14T04:52:54;3.80;;;3.50;;
14849;SDS011;7517;48.400;11.770;2022-11-14T04:55:21;4.07;;;3.77;;
14849;SDS011;7517;48.400;11.770;2022-11-14T04:57:52;8.00;;;4.07;;
14849;SDS011;7517;48.400;11.770;2022-11-14T05:00:20;6.63;;;4.00;;
14849;SDS011;7517;48.400;11.770;2022-11-14T05:02:47;8.50;;;4.40;;
14849;SDS011;7517;48.400;11.770;2022-11-14T05:05:15;10.10;;;4.27;;
14849;SDS011;7517;48.400;11.770;2022-11-14T05:07:42;4.10;;;3.70;;
14849;SDS011;7517;48.400;11.770;2022-11-14T05:10:11;3.50;;;3.30;;
14849;SDS011;7517;48.400;11.770;2022-11-14T05:12:38;9.03;;;4.03;;
14849;SDS011;7517;48.400;11.770;2022-11-14T05:15:06;5.10;;;3.57;;
14849;SDS011;7517;48.400;11.770;2022-11-14T05:17:34;3.83;;;3.60;;
14849;SDS011;7517;48.400;11.770;2022-11-14T05:20:01;9.27;;;4.10;;
14849;SDS011;7517;48.400;11.770;2022-11-14T05:22:30;12.97;;;3.90;;
14849;SDS011;7517;48.400;11.770;2022-11-14T05:24:57;6.80;;;3.90;;
14849;SDS011;7517;48.400;11.770;2022-11-14T05:27:25;3.87;;;3.50;;
14849;SDS011;7517;48.400;11.770;2022-11-14T05:29:53;8.43;;;4.60;;
14849;SDS011;7517;48.400;11.770;2022-11-14T05:32:21;3.80;;;3.60;;
14849;SDS011;7517;48.400;11.770;2022-11-14T05:34:48;3.90;;;3.47;;
14849;SDS011;7517;48.400;11.770;2022-11-14T05:37:15;9.43;;;3.20;;
14849;SDS011;7517;48.400;11.770;2022-11-14T05:39:42;8.50;;;2.97;;
14849;SDS011;7517;48.400;11.770;2022-11-14T05:42:09;14.30;;;3.67;;
14849;SDS011;7517;48.400;11.770;2022-11-14T05:44:38;7.40;;;3.03;;
14849;SDS011;7517;48.400;11.770;2022-11-14T05:47:05;12.40;;;2.90;;
14849;SDS011;7517;48.400;11.770;2022-11-14T05:49:33;5.97;;;3.00;;
14849;SDS011;7517;48.400;11.770;2022-11-14T05:52:00;9.70;;;3.60;;
14849;SDS011;7517;48.400;11.770;2022-11-14T05:54:27;11.27;;;3.70;;
14849;SDS011;7517;48.400;11.770;2022-11-14T05:56:54;8.37;;;3.93;;
14849;SDS011;7517;48.400;11.770;2022-11-14T05:59:21;10.43;;;4.80;;
14849;SDS011;7517;48.400;11.770;2022-11-14T06:01:50;9.33;;;3.60;;
14849;SDS011;7517;48.400;11.770;2022-11-14T06:04:17;10.80;;;3.90;;
14849;SDS011;7517;48.400;11.770;2022-11-14T06:06:44;8.23;;;3.50;;
14849;SDS011;7517;48.400;11.770;2022-11-14T06:09:12;5.13;;;3.00;;
14849;SDS011;7517;48.400;11.770;2022-11-14T06:11:39;8.03;;;3.17;;
14849;SDS011;7517;48.400;11.770;2022-11-14T06:14:06;3.30;;;2.60;;
14849;SDS011;7517;48.400;11.770;2022-11-14T06:16:33;2.77;;;2.50;;
14849;SDS011;7517;48.400;11.770;2022-11-14T06:19:02;5.00;;;2.77;;
14849;SDS011;7517;48.400;11.770;2022-11-14T06:21:30;3.57;;;2.53;;
14849;SDS011;7517;48.400;11.770;2022-11-14T06:23:57;11.37;;;2.73;;
14849;SDS011;7517;48.400;11.770;2022-11-14T06:26:25;5.17;;;2.20;;
14849;SDS011;7517;48.400;11.770;2022-11-14T06:28:56;2.97;;;2.47;;
14849;SDS011;7517;48.400;11.770;2022-11-14T06:31:24;2.70;;;2.50;;
14849;SDS011;7517;48.400;11.770;2022-11-14T06:33:52;4.20;;;2.50;;
14849;SDS011;7517;48.400;11.770;2022-11-14T06:36:22;6.77;;;2.90;;
14849;SDS011;7517;48.400;11.770;2022-11-14T06:38:49;3.60;;;2.70;;
14849;SDS011;7517;48.400;11.770;2022-11-14T06:41:17;3.03;;;2.63;;
14849;SDS011;7517;48.400;11.770;2022-11-14T06:43:46;4.30;;;2.30;;
14849;SDS011;7517;48.400;11.770;2022-11-14T06:46:17;5.97;;;2.47;;
14849;SDS011;7517;48.400;11.770;2022-11-14T06:48:47;11.57;;;2.70;;
14849;SDS011;7517;48.400;11.770;2022-11-14T06:51:16;7.43;;;3.10;;
14849;SDS011;7517;48.400;11.770;2022-11-14T06:53:45;9.33;;;2.83;;
14849;SDS011;7517;48.400;11.770;2022-11-14T06:56:13;3.03;;;2.50;;
14849;SDS011;7517;48.400;11.770;2022-11-14T06:58:45;5.03;;;2.50;;
14849;SDS011;7517;48.400;11.770;2022-11-14T07:01:15;6.60;;;2.33;;
14849;SDS011;7517;48.400;11.770;2022-11-14T07:03:44;2.10;;;2.00;;
14849;SDS011;7517;48.400;11.770;2022-11-14T07:06:13;3.27;;;2.70;;
14849;SDS011;7517;48.400;11.770;2022-11-14T07:08:43;3.07;;;2.10;;
14849;SDS011;7517;48.400;11.770;2022-11-14T07:11:12;1.93;;;1.83;;
14849;SDS011;7517;48.400;11.770;2022-11-14T07:13:46;5.80;;;2.10;;
14849;SDS011;7517;48.400;11.770;2022-11-14T07:16:14;5.50;;;2.23;;
14849;SDS011;7517;48.400;11.770;2022-11-14T07:18:41;2.27;;;2.17;;
14849;SDS011;7517;48.400;11.770;2022-11-14T07:21:08;2.50;;;2.30;;
14849;SDS011;7517;48.400;11.770;2022-11-14T07:23:37;2.67;;;2.57;;
14849;SDS011;7517;48.400;11.770;2022-11-14T07:26:08;4.87;;;2.70;;
14849;SDS011;7517;48.400;11.770;2022-11-14T07:28:38;7.27;;;2.87;;
14849;SDS011;7517;48.400;11.770;2022-11-14T07:31:08;2.40;;;2.20;;
14849;SDS011;7517;48.400;11.770;2022-11-14T07:33:37;5.30;;;2.40;;
14849;SDS011;7517;48.400;11.770;2022-11-14T07:36:06;2.27;;;2.17;;
14849;SDS011;7517;48.400;11.770;2022-11-14T07:38:34;2.53;;;2.33;;
14849;SDS011;7517;48.400;11.770;2022-11-14T07:41:04;6.30;;;2.57;;
14849;SDS011;7517;48.400;11.770;2022-11-14T07:43:34;2.70;;;2.50;;
14849;SDS011;7517;48.400;11.770;2022-11-14T07:46:03;4.97;;;2.40;;
14849;SDS011;7517;48.400;11.770;2022-11-14T07:48:33;2.80;;;2.30;;
14849;SDS011;7517;48.400;11.770;2022-11-14T07:51:00;8.60;;;2.43;;
14849;SDS011;7517;48.400;11.770;2022-11-14T07:53:30;3.37;;;2.60;;
14849;SDS011;7517;48.400;11.770;2022-11-14T07:56:00;3.63;;;2.63;;
14849;SDS011;7517;48.400;11.770;2022-11-14T07:58:32;2.83;;;2.63;;
14849;SDS011;7517;48.400;11.770;2022-11-14T08:01:01;4.60;;;2.10;;
14849;SDS011;7517;48.400;11.770;2022-11-14T08:03:31;5.70;;;2.67;;
14849;SDS011;7517;48.400;11.770;2022-11-14T08:05:59;3.00;;;2.60;;
14849;SDS011;7517;48.400;11.770;2022-11-14T08:08:27;3.77;;;3.47;;
14849;SDS011;7517;48.400;11.770;2022-11-14T08:10:55;3.57;;;3.27;;
14849;SDS011;7517;48.400;11.770;2022-11-14T08:13:23;4.00;;;2.60;;
14849;SDS011;7517;48.400;11.770;2022-11-14T08:15:52;6.40;;;2.63;;
14849;SDS011;7517;48.400;11.770;2022-11-14T08:18:20;2.97;;;2.53;;
14849;SDS011;7517;48.400;11.770;2022-11-14T08:20:47;2.70;;;2.50;;
14849;SDS011;7517;48.400;11.770;2022-11-14T08:23:14;3.27;;;2.37;;
14849;SDS011;7517;48.400;11.770;2022-11-14T08:25:42;3.47;;;2.73;;
14849;SDS011;7517;48.400;11.770;2022-11-14T08:28:09;3.13;;;2.80;;
14849;SDS011;7517;48.400;11.770;2022-11-14T08:30:36;5.87;;;3.13;;
14849;SDS011;7517;48.400;11.770;2022-11-14T08:33:05;3.67;;;2.67;;
14849;SDS011;7517;48.400;11.770;2022-11-14T08:35:33;3.00;;;2.63;;
14849;SDS011;7517;48.400;11.770;2022-11-14T08:38:00;3.73;;;2.97;;
14849;SDS011;7517;48.400;11.770;2022-11-14T08:40:28;4.90;;;3.20;;
14849;SDS011;7517;48.400;11.770;2022-11-14T08:42:58;2.80;;;2.60;;
14849;SDS011;7517;48.400;11.770;2022-11-14T08:45:27;3.03;;;2.77;;
14849;SDS011;7517;48.400;11.770;2022-11-14T08:47:54;2.80;;;2.57;;
14849;SDS011;7517;48.400;11.770;2022-11-14T08:50:23;3.37;;;2.50;;
14849;SDS011;7517;48.400;11.770;2022-11-14T08:52:50;2.83;;;2.63;;
14849;SDS011;7517;48.400;11.770;2022-11-14T08:55:18;3.83;;;2.60;;
14849;SDS011;7517;48.400;11.770;2022-11-14T08:57:46;3.23;;;2.77;;
14849;SDS011;7517;48.400;11.770;2022-11-14T09:00:14;3.30;;;2.63;;
14849;SDS011;7517;48.400;11.770;2022-11-14T09:02:42;3.23;;;2.80;;
14849;SDS011;7517;48.400;11.770;2022-11-14T09:05:09;4.50;;;3.07;;
14849;SDS011;7517;48.400;11.770;2022-11-14T09:07:38;3.73;;;3.37;;
14849;SDS011;7517;48.400;11.770;2022-11-14T09:10:05;3.37;;;3.17;;
14849;SDS011;7517;48.400;11.770;2022-11-14T09:12:34;3.10;;;2.80;;
14849;SDS011;7517;48.400;11.770;2022-11-14T09:15:01;3.30;;;3.00;;
14849;SDS011;7517;48.400;11.770;2022-11-14T09:17:28;3.17;;;2.90;;
14849;SDS011;7517;48.400;11.770;2022-11-14T09:19:55;3.47;;;3.17;;
14849;SDS011;7517;48.400;11.770;2022-11-14T09:22:22;3.00;;;2.80;;
14849;SDS011;7517;48.400;11.770;2022-11-14T09:24:51;6.23;;;3.53;;
14849;SDS011;7517;48.400;11.770;2022-11-14T09:27:18;2.90;;;2.70;;
14849;SDS011;7517;48.400;11.770;2022-11-14T09:29:45;3.47;;;3.17;;
14849;SDS011;7517;48.400;11.770;2022-11-14T09:32:13;3.57;;;3.27;;
14849;SDS011;7517;48.400;11.770;2022-11-14T09:34:40;3.17;;;2.97;;
14849;SDS011;7517;48.400;11.770;2022-11-14T09:37:09;3.67;;;3.37;;
14849;SDS011;7517;48.400;11.770;2022-11-14T09:39:37;3.37;;;3.10;;
14849;SDS011;7517;48.400;11.770;2022-11-14T09:42:13;3.23;;;2.93;;
14849;SDS011;7517;48.400;11.770;2022-11-14T09:44:55;3.27;;;3.07;;
14849;SDS011;7517;48.400;11.770;2022-11-14T09:47:27;3.47;;;3.23;;
14849;SDS011;7517;48.400;11.770;2022-11-14T09:50:00;3.90;;;3.60;;
14849;SDS011;7517;48.400;11.770;2022-11-14T09:52:34;3.80;;;3.60;;
14849;SDS011;7517;48.400;11.770;2022-11-14T09:55:08;4.07;;;3.77;;
14849;SDS011;7517;48.400;11.770;2022-11-14T09:57:40;3.90;;;3.60;;
14849;SDS011;7517;48.400;11.770;2022-11-14T10:00:14;4.10;;;3.80;;
14849;SDS011;7517;48.400;11.770;2022-11-14T10:02:50;3.80;;;3.50;;
14849;SDS011;7517;48.400;11.770;2022-11-14T10:05:41;5.40;;;4.93;;
14849;SDS011;7517;48.400;11.770;2022-11-14T10:08:48;4.23;;;3.93;;
14849;SDS011;7517;48.400;11.770;2022-11-14T10:11:37;5.00;;;4.60;;
14849;SDS011;7517;48.400;11.770;2022-11-14T10:17:20;4.50;;;4.10;;
14849;SDS011;7517;48.400;11.770;2022-11-14T10:20:12;4.50;;;4.10;;
14849;SDS011;7517;48.400;11.770;2022-11-14T10:22:56;4.33;;;3.97;;
14849;SDS011;7517;48.400;11.770;2022-11-14T10:25:53;4.70;;;4.30;;
14849;SDS011;7517;48.400;11.770;2022-11-14T10:28:42;4.93;;;4.47;;
14849;SDS011;7517;48.400;11.770;2022-11-14T10:31:31;3.93;;;3.63;;
14849;SDS011;7517;48.400;11.770;2022-11-14T10:34:11;4.27;;;3.97;;
14849;SDS011;7517;48.400;11.770;2022-11-14T10:36:46;4.10;;;3.80;;
14849;SDS011;7517;48.400;11.770;2022-11-14T10:39:28;4.00;;;3.70;;
14849;SDS011;7517;48.400;11.770;2022-11-14T10:42:07;3.97;;;3.67;;
14849;SDS011;7517;48.400;11.770;2022-11-14T10:44:42;4.30;;;4.00;;
14849;SDS011;7517;48.400;11.770;2022-11-14T10:47:23;4.30;;;4.00;;
14849;SDS011;7517;48.400;11.770;2022-11-14T10:49:59;4.03;;;3.73;;
14849;SDS011;7517;48.400;11.770;2022-11-14T10:52:46;4.03;;;3.73;;
14849;SDS011;7517;48.400;11.770;2022-11-14T10:55:18;4.20;;;3.90;;
14849;SDS011;7517;48.400;11.770;2022-11-14T10:57:49;3.87;;;3.57;;
14849;SDS011;7517;48.400;11.770;2022-11-14T11:00:17;4.10;;;3.80;;
14849;SDS011;7517;48.400;11.770;2022-11-14T11:02:49;4.60;;;4.20;;
14849;SDS011;7517;48.400;11.770;2022-11-14T11:05:20;3.83;;;3.53;;
14849;SDS011;7517;48.400;11.770;2022-11-14T11:07:49;3.57;;;3.37;;
14849;SDS011;7517;48.400;11.770;2022-11-14T11:10:34;3.90;;;3.60;;
14849;SDS011;7517;48.400;11.770;2022-11-14T11:13:31;3.93;;;3.63;;
14849;SDS011;7517;48.400;11.770;2022-11-14T11:16:02;4.30;;;4.00;;
14849;SDS011;7517;48.400;11.770;2022-11-14T11:18:32;4.40;;;4.00;;
14849;SDS011;7517;48.400;11.770;2022-11-14T11:21:02;4.43;;;4.13;;
14849;SDS011;7517;48.400;11.770;2022-11-14T11:23:34;3.90;;;3.60;;
14849;SDS011;7517;48.400;11.770;2022-11-14T11:26:04;4.40;;;4.07;;
14849;SDS011;7517;48.400;11.770;2022-11-14T11:28:41;3.80;;;3.50;;
14849;SDS011;7517;48.400;11.770;2022-11-14T11:31:08;7.33;;;4.33;;
14849;SDS011;7517;48.400;11.770;2022-11-14T11:33:38;4.20;;;3.80;;
14849;SDS011;7517;48.400;11.770;2022-11-14T11:36:09;4.60;;;4.20;;
14849;SDS011;7517;48.400;11.770;2022-11-14T11:38:43;3.87;;;3.57;;
14849;SDS011;7517;48.400;11.770;2022-11-14T11:41:15;4.00;;;3.70;;
14849;SDS011;7517;48.400;11.770;2022-11-14T11:43:52;4.30;;;4.00;;
14849;SDS011;7517;48.400;11.770;2022-11-14T11:46:25;4.27;;;3.87;;
14849;SDS011;7517;48.400;11.770;2022-11-14T11:49:02;4.63;;;4.23;;
14849;SDS011;7517;48.400;11.770;2022-11-14T11:51:39;4.17;;;3.87;;
14849;SDS011;7517;48.400;11.770;2022-11-14T11:54:12;4.07;;;3.77;;
14849;SDS011;7517;48.400;11.770;2022-11-14T11:56:44;5.40;;;4.90;;
14849;SDS011;7517;48.400;11.770;2022-11-14T11:59:20;4.50;;;4.17;;
14849;SDS011;7517;48.400;11.770;2022-11-14T12:01:57;4.63;;;4.20;;
14849;SDS011;7517;48.400;11.770;2022-11-14T12:04:27;4.10;;;3.80;;
14849;SDS011;7517;48.400;11.770;2022-11-14T12:06:57;6.80;;;4.47;;
14849;SDS011;7517;48.400;11.770;2022-11-14T12:09:35;4.47;;;4.10;;
14849;SDS011;7517;48.400;11.770;2022-11-14T12:12:08;4.70;;;4.30;;
14849;SDS011;7517;48.400;11.770;2022-11-14T12:14:54;4.20;;;3.80;;
14849;SDS011;7517;48.400;11.770;2022-11-14T12:21:12;3.63;;;3.33;;
14849;SDS011;7517;48.400;11.770;2022-11-14T12:24:23;4.50;;;4.10;;
14849;SDS011;7517;48.400;11.770;2022-11-14T12:27:22;3.97;;;3.67;;
14849;SDS011;7517;48.400;11.770;2022-11-14T12:30:17;3.50;;;3.30;;
14849;SDS011;7517;48.400;11.770;2022-11-14T12:32:47;4.23;;;3.93;;
14849;SDS011;7517;48.400;11.770;2022-11-14T12:35:22;4.17;;;3.83;;
14849;SDS011;7517;48.400;11.770;2022-11-14T12:37:56;4.00;;;3.70;;
14849;SDS011;7517;48.400;11.770;2022-11-14T12:40:26;4.10;;;3.80;;
14849;SDS011;7517;48.400;11.770;2022-11-14T12:42:57;3.70;;;3.40;;
14849;SDS011;7517;48.400;11.770;2022-11-14T12:48:30;3.40;;;3.20;;
14849;SDS011;7517;48.400;11.770;2022-11-14T12:51:01;5.10;;;4.10;;
14849;SDS011;7517;48.400;11.770;2022-11-14T12:53:45;4.73;;;4.17;;
14849;SDS011;7517;48.400;11.770;2022-11-14T12:56:16;4.30;;;4.00;;
14849;SDS011;7517;48.400;11.770;2022-11-14T12:59:23;4.37;;;4.00;;
14849;SDS011;7517;48.400;11.770;2022-11-14T13:05:46;4.23;;;3.80;;
14849;SDS011;7517;48.400;11.770;2022-11-14T13:08:32;4.00;;;3.70;;
14849;SDS011;7517;48.400;11.770;2022-11-14T13:11:32;4.67;;;4.17;;
14849;SDS011;7517;48.400;11.770;2022-11-14T13:14:24;6.03;;;3.97;;
14849;SDS011;7517;48.400;11.770;2022-11-14T13:17:21;4.07;;;3.67;;
14849;SDS011;7517;48.400;11.770;2022-11-14T13:20:22;4.27;;;3.97;;
14849;SDS011;7517;48.400;11.770;2022-11-14T13:26:36;4.63;;;4.23;;
14849;SDS011;7517;48.400;11.770;2022-11-14T13:35:24;4.57;;;4.17;;
14849;SDS011;7517;48.400;11.770;2022-11-14T13:38:28;3.93;;;3.63;;
14849;SDS011;7517;48.400;11.770;2022-11-14T13:41:25;4.13;;;3.73;;
14849;SDS011;7517;48.400;11.770;2022-11-14T13:44:30;4.73;;;4.23;;
14849;SDS011;7517;48.400;11.770;2022-11-14T13:51:10;4.40;;;4.10;;
14849;SDS011;7517;48.400;11.770;2022-11-14T13:53:42;4.03;;;3.73;;
14849;SDS011;7517;48.400;11.770;2022-11-14T13:56:15;4.40;;;4.10;;
14849;SDS011;7517;48.400;11.770;2022-11-14T14:02:18;4.17;;;3.77;;
14849;SDS011;7517;48.400;11.770;2022-11-14T14:05:21;3.93;;;3.63;;
14849;SDS011;7517;48.400;11.770;2022-11-14T14:08:13;3.70;;;3.50;;
14849;SDS011;7517;48.400;11.770;2022-11-14T14:11:02;4.10;;;3.77;;
14849;SDS011;7517;48.400;11.770;2022-11-14T14:13:56;4.47;;;4.10;;
14849;SDS011;7517;48.400;11.770;2022-11-14T14:16:35;4.47;;;4.07;;
14849;SDS011;7517;48.400;11.770;2022-11-14T14:19:15;4.47;;;4.07;;
14849;SDS011;7517;48.400;11.770;2022-11-14T14:21:49;4.43;;;4.03;;
14849;SDS011;7517;48.400;11.770;2022-11-14T14:24:32;5.00;;;4.50;;
14849;SDS011;7517;48.400;11.770;2022-11-14T14:27:15;4.30;;;3.70;;
14849;SDS011;7517;48.400;11.770;2022-11-14T14:29:53;4.40;;;3.97;;
14849;SDS011;7517;48.400;11.770;2022-11-14T14:32:32;5.77;;;4.10;;
14849;SDS011;7517;48.400;11.770;2022-11-14T14:35:12;5.20;;;4.30;;
14849;SDS011;7517;48.400;11.770;2022-11-14T14:37:50;4.70;;;4.30;;
14849;SDS011;7517;48.400;11.770;2022-11-14T14:40:23;4.83;;;3.57;;
14849;SDS011;7517;48.400;11.770;2022-11-14T14:42:54;4.13;;;3.80;;
14849;SDS011;7517;48.400;11.770;2022-11-14T14:45:23;4.20;;;3.90;;
14849;SDS011;7517;48.400;11.770;2022-11-14T14:47:58;4.83;;;4.43;;
14849;SDS011;7517;48.400;11.770;2022-11-14T14:50:30;4.27;;;3.47;;
14849;SDS011;7517;48.400;11.770;2022-11-14T14:53:05;4.33;;;3.70;;
14849;SDS011;7517;48.400;11.770;2022-11-14T14:55:33;4.03;;;3.73;;
14849;SDS011;7517;48.400;11.770;2022-11-14T14:58:14;4.07;;;3.77;;
14849;SDS011;7517;48.400;11.770;2022-11-14T15:00:50;4.37;;;3.97;;
14849;SDS011;7517;48.400;11.770;2022-11-14T15:03:22;4.30;;;3.90;;
14849;SDS011;7517;48.400;11.770;2022-11-14T15:05:56;4.10;;;3.80;;
14849;SDS011;7517;48.400;11.770;2022-11-14T15:08:25;3.77;;;3.47;;
14849;SDS011;7517;48.400;11.770;2022-11-14T15:10:57;4.13;;;3.63;;
14849;SDS011;7517;48.400;11.770;2022-11-14T15:13:27;6.67;;;4.73;;
14849;SDS011;7517;48.400;11.770;2022-11-14T15:15:57;4.40;;;4.00;;
14849;SDS011;7517;48.400;11.770;2022-11-14T15:18:29;6.07;;;3.93;;
14849;SDS011;7517;48.400;11.770;2022-11-14T15:21:05;5.50;;;4.40;;
14849;SDS011;7517;48.400;11.770;2022-11-14T15:23:40;4.60;;;4.17;;
14849;SDS011;7517;48.400;11.770;2022-11-14T15:26:11;4.03;;;3.73;;
14849;SDS011;7517;48.400;11.770;2022-11-14T15:28:42;4.27;;;3.87;;
14849;SDS011;7517;48.400;11.770;2022-11-14T15:31:18;5.30;;;4.83;;
14849;SDS011;7517;48.400;11.770;2022-11-14T15:36:32;5.33;;;4.83;;
14849;SDS011;7517;48.400;11.770;2022-11-14T15:39:00;11.70;;;5.60;;
14849;SDS011;7517;48.400;11.770;2022-11-14T15:41:30;5.77;;;4.90;;
14849;SDS011;7517;48.400;11.770;2022-11-14T15:43:58;5.90;;;5.30;;
14849;SDS011;7517;48.400;11.770;2022-11-14T15:46:39;5.50;;;5.10;;
14849;SDS011;7517;48.400;11.770;2022-11-14T15:49:18;6.90;;;5.53;;